Latest Coastal Weather Observations for Cape Grim

IDT60701

Issued at 10:11 am EST Thursday 28 May 2015 (issued every 10 minutes, with the page automatically refreshed every 10 minutes)

About coastal observations | Map of coastal stations | Coastal observations for TAS | Marine services | Other Formats
Station Details ID: 091331 Name: CAPE GRIM Lat: -40.68 Lon: 144.69 Height: 86.0 m
Data from the previous 72 hours. | See also: Recent months at Cape Grim
Date/Time
EST
Temp

°C
Wind Pressure Rain
since 9am
mm
Weather Cloud Vis
km
Sea
Height
m
Swell
Dir
 
Speed
knots
Gust
knots
hPa Trend Height
m
Period
s
Dir
28/10:00am 14.1 NNW 21 27 1010.5 - 0.0 - Partly cloudy - - - - -
28/09:30am 13.6 NNW 24 30 1010.8 - 0.0 - Partly cloudy - - - - -
28/09:00am 13.9 NNW 23 29 1011.1 - 11.8 - Partly cloudy - - - - -
28/08:30am 13.5 NNW 28 35 1011.2 - 11.8 - Partly cloudy - - - - -
28/08:00am 13.5 N 21 33 1010.7 - 11.8 - Partly cloudy - - - - -
28/07:59am 13.4 N 21 33 1010.7 - 11.8 - Partly cloudy - - - - -
28/07:30am 13.1 N 15 20 1011.4 - 11.8 - Partly cloudy - - - - -
28/07:00am 12.9 NNW 15 18 1011.8 - 11.8 - Partly cloudy - - - - -
28/06:30am 13.1 NW 18 26 1011.9 - 11.8 - Partly cloudy - - - - -
28/06:00am 12.5 NNW 18 21 1011.9 - 11.8 - - - - - - -
28/05:30am 12.5 NNW 14 18 1011.8 - 11.8 - Partly cloudy - - - - -
28/05:00am 12.5 NNW 16 19 1012.1 - 11.8 - Partly cloudy - - - - -
28/04:30am 12.4 NW 14 18 1012.3 - 11.8 - Partly cloudy - - - - -
28/04:00am 12.3 NW 14 17 1012.5 - 11.4 - Partly cloudy - - - - -
28/03:30am 12.3 NW 14 21 1012.5 - 11.4 - Partly cloudy - - - - -
28/03:21am 12.2 NW 16 24 1012.6 - 11.4 - Partly cloudy - - - - -
28/03:11am 11.7 W 15 21 1012.8 - 10.2 - Partly cloudy - - - - -
28/03:00am 12.5 WNW 12 15 1012.8 - 4.8 Recent precip. Cloudy - - - - -
28/02:30am 12.6 NW 11 14 1013.2 - 3.4 - Partly cloudy - - - - -
28/02:00am 12.8 WNW 17 23 1013.3 - 3.4 - Partly cloudy - - - - -
28/01:30am 12.9 NNW 16 19 1013.6 - 3.2 - Partly cloudy - - - - -
28/01:00am 12.6 NW 11 15 1013.5 - 3.2 - Partly cloudy - - - - -
28/12:30am 12.4 NW 14 17 1013.9 - 3.2 - Partly cloudy - - - - -
28/12:00am 11.8 WNW 13 18 1013.9 - 3.2 Recent precip. Mostly cloudy - - - - -
 
Date/Time
EST
Temp

°C
Wind Pressure Rain
since 9am
mm
Weather Cloud Vis
km
Sea
Height
m
Swell
Dir
 
Speed
knots
Gust
knots
hPa Trend Height
m
Period
s
Dir
27/11:30pm 11.5 WNW 22 27 1014.5 - 2.6 - Partly cloudy - - - - -
27/11:20pm 12.0 NW 18 31 1014.5 - 2.4 - Partly cloudy - - - - -
27/11:18pm 12.8 NW 16 26 1014.5 - 2.2 - Partly cloudy - - - - -
27/11:00pm 12.8 NW 15 19 1014.2 - 1.8 - Partly cloudy - - - - -
27/10:30pm 13.2 NNW 15 18 1014.3 - 1.4 - Partly cloudy - - - - -
27/10:00pm 13.3 NNW 15 19 1014.6 - 1.4 - Partly cloudy - - - - -
27/09:30pm 13.5 NW 13 17 1014.6 - 1.4 - Partly cloudy - - - - -
27/09:00pm 13.2 NW 14 19 1014.7 - 1.4 - Partly cloudy - - - - -
27/08:30pm 13.2 NNW 16 21 1014.9 - 1.4 - Partly cloudy - - - - -
27/08:00pm 12.9 NW 18 27 1014.9 - 1.4 - Cloudy - - - - -
27/07:46pm 12.8 NW 17 27 1014.9 - 1.4 - Partly cloudy - - - - -
27/07:30pm 12.3 NW 20 29 1014.8 - 1.4 - Partly cloudy - - - - -
27/07:14pm 13.5 NNW 21 28 1014.7 - 1.0 - Partly cloudy - - - - -
27/07:00pm 13.6 NNW 17 22 1014.4 - 0.0 - Partly cloudy - - - - -
27/06:30pm 13.5 N 16 21 1014.2 - 0.0 - Partly cloudy - - - - -
27/06:00pm 13.4 NNW 16 19 1014.2 - 0.0 - Cloudy - - - - -
27/05:30pm 13.4 NNW 14 18 1014.2 - 0.0 - Partly cloudy - - - - -
27/05:00pm 13.4 N 13 16 1014.1 - 0.0 - Partly cloudy - - - - -
27/04:30pm 13.4 NNW 13 16 1014.2 - 0.0 - Partly cloudy - - - - -
27/04:00pm 13.7 NNW 13 16 1014.3 - 0.0 - Partly cloudy - - - - -
27/03:30pm 14.1 N 15 20 1014.3 - 0.0 - - - - - - -
27/03:00pm 14.3 NNW 15 19 1014.4 - 0.0 - Mostly clear - - - - -
27/02:30pm 14.4 NNW 16 21 1014.4 - 0.0 - - - - - - -
27/02:00pm 14.7 NNW 14 19 1014.5 - 0.0 - - - - - - -
27/01:30pm 14.5 N 17 21 1014.8 - 0.0 - - - - - - -
27/01:00pm 14.6 N 17 21 1015.2 - 0.0 - Partly cloudy - - - - -
27/12:30pm 13.8 N 17 22 1015.7 - 0.0 - Partly cloudy - - - - -
27/12:00pm 13.8 N 19 25 1016.2 - 0.0 - Cloudy - - - - -
27/11:30am 13.7 N 21 27 1016.4 - 0.0 - Partly cloudy - - - - -
27/11:00am 13.4 N 23 27 1016.7 - 0.0 - Partly cloudy - - - - -
27/10:30am 13.2 N 21 25 1016.9 - 0.0 - Partly cloudy - - - - -
27/10:00am 13.4 N 21 27 1016.8 - 0.0 - Partly cloudy - - - - -
27/09:30am 13.2 N 18 22 1017.1 - 0.0 - Partly cloudy - - - - -
27/09:00am 12.8 N 17 20 1017.3 - 0.8 - Cloudy - - - - -
27/08:30am 12.7 N 16 21 1017.2 - 0.8 - Cloudy - - - - -
27/08:00am 12.6 N 17 20 1017.1 - 0.8 - Partly cloudy - - - - -
27/07:30am 12.6 N 17 20 1017.3 - 0.8 - Partly cloudy - - - - -
27/07:00am 12.7 N 18 21 1017.5 - 0.4 - Partly cloudy - - - - -
27/06:30am 12.6 N 17 22 1017.6 - 0.2 - Partly cloudy - - - - -
27/06:00am 12.6 N 16 20 1017.7 - 0.2 Recent precip. Cloudy - - - - -
27/05:30am 12.7 N 16 21 1017.9 - 0.2 - Partly cloudy - - - - -
27/05:00am 12.6 N 16 19 1018.1 - 0.0 - Partly cloudy - - - - -
27/04:30am 12.1 NNE 14 17 1018.1 - 0.0 - Partly cloudy - - - - -
27/04:00am 12.2 NNE 14 17 1018.5 - 0.0 - Cloudy - - - - -
27/03:30am 12.0 NNE 14 16 1018.8 - 0.0 - Partly cloudy - - - - -
27/03:00am 11.9 NE 15 17 1019.4 - 0.0 - Cloudy - - - - -
27/02:30am 11.6 NE 14 17 1019.8 - 0.0 - Partly cloudy - - - - -
27/02:00am 11.5 NE 14 16 1020.2 - 0.0 - Partly cloudy - - - - -
27/01:30am 11.4 NNE 14 17 1020.6 - 0.0 - Partly cloudy - - - - -
27/01:00am 11.4 NNE 15 18 1020.9 - 0.0 - Partly cloudy - - - - -
27/12:30am 11.4 NE 14 16 1021.1 - 0.0 - Partly cloudy - - - - -
27/12:00am 11.3 NNE 13 16 1021.7 - 0.0 - Cloudy - - - - -
 
Date/Time
EST
Temp

°C
Wind Pressure Rain
since 9am
mm
Weather Cloud Vis
km
Sea
Height
m
Swell
Dir
 
Speed
knots
Gust
knots
hPa Trend Height
m
Period
s
Dir
26/11:30pm 11.1 NE 14 17 1022.0 - 0.0 - Partly cloudy - - - - -
26/11:00pm 11.0 NNE 14 16 1022.2 - 0.0 - - - - - - -
26/10:30pm 10.9 NE 13 15 1022.4 - 0.0 - Partly cloudy - - - - -
26/10:00pm 11.2 NE 11 13 1022.8 - 0.0 - Partly cloudy - - - - -
26/09:30pm 10.9 NE 11 13 1022.9 - 0.0 - Partly cloudy - - - - -
26/09:00pm 11.2 NE 10 12 1023.1 - 0.0 - Mostly cloudy - - - - -
26/08:30pm 11.2 NNE 11 14 1023.3 - 0.0 - Partly cloudy - - - - -
26/08:00pm 11.4 NNE 9 11 1023.7 - 0.0 - - - - - - -
26/07:30pm 11.1 NE 8 9 1023.9 - 0.0 - Partly cloudy - - - - -
26/07:00pm 11.2 NNE 9 10 1024.2 - 0.0 - Partly cloudy - - - - -
26/06:30pm 11.6 NNE 8 8 1024.4 - 0.0 - Partly cloudy - - - - -
26/06:00pm 11.2 N 6 7 1024.5 - 0.0 - Partly cloudy - - - - -
26/05:30pm 11.4 N 1 4 1024.5 - 0.0 - - - - - - -
26/05:00pm 12.2 NNW 2 3 1024.4 - 0.0 - - - - - - -
26/04:30pm 13.0 CALM 0 0 1024.7 - 0.0 - - - - - - -
26/04:00pm 13.0 NNW 3 4 1024.8 - 0.0 - - - - - - -
26/03:30pm 12.9 NNW 6 8 1025.0 - 0.0 - Partly cloudy - - - - -
26/03:00pm 13.7 NNW 7 8 1025.3 - 0.0 - Mostly clear - - - - -
26/02:30pm 13.9 NNW 6 8 1025.5 - 0.0 - - - - - - -
26/02:00pm 14.4 WNW 6 7 1025.8 - 0.0 - - - - - - -
26/01:30pm 14.5 NW 6 8 1026.1 - 0.0 - - - - - - -
26/01:00pm 14.7 NW 7 8 1026.6 - 0.0 - - - - - - -
26/12:30pm 14.4 NW 7 8 1026.8 - 0.0 - - - - - - -
26/12:00pm 14.3 W 6 7 1027.1 - 0.0 - - - - - - -
26/11:30am 14.6 WNW 7 8 1027.6 - 0.0 - - - - - - -
26/11:00am 14.5 WNW 7 8 1027.8 - 0.0 - - - - - - -
26/10:30am 14.4 WNW 7 9 1028.1 - 0.0 - - - - - - -
26/10:00am 14.1 WNW 7 9 1028.2 - 0.0 - - - - - - -
26/09:30am 13.9 WNW 6 8 1028.3 - 0.0 - - - - - - -
26/09:00am 13.2 W 5 7 1028.2 - 0.2 - - - - - - -
26/08:30am 12.9 W 5 6 1028.3 - 0.2 - - - - - - -
26/08:00am 12.6 W 6 8 1028.2 - 0.2 - - - - - - -
26/07:30am 12.4 W 7 10 1028.2 - 0.2 - - - - - - -
26/07:00am 12.5 W 7 10 1028.0 - 0.2 - - - - - - -
26/06:30am 12.8 W 6 10 1027.7 - 0.2 - - - - - - -
26/06:00am 12.7 WSW 5 8 1027.8 - 0.0 - Mostly cloudy - - - - -
26/05:30am 12.7 SW 6 8 1027.7 - 0.0 - Partly cloudy - - - - -
26/05:00am 12.8 W 7 10 1027.9 - 0.0 - Partly cloudy - - - - -
26/04:47am 12.7 WSW 6 10 1027.8 - 0.0 - Partly cloudy - - - - -
26/04:35am 12.7 WSW 5 9 1027.8 - 0.0 - Partly cloudy - - - - -
26/04:30am 12.7 WSW 5 8 1027.7 - 0.0 - Partly cloudy - - - - -
26/04:00am 12.8 W 7 11 1027.7 - 0.0 - Partly cloudy - - - - -
26/03:30am 12.8 W 7 11 1027.8 - 0.0 - Partly cloudy - - - - -
26/03:00am 12.7 W 8 10 1028.0 - 0.0 - - - - - - -
26/02:30am 12.7 W 7 11 1028.0 - 0.0 - Partly cloudy - - - - -
26/02:05am 12.7 W 8 10 1028.0 - 0.0 - Partly cloudy - - - - -
26/02:00am 12.7 W 9 12 1028.0 - 0.0 - Partly cloudy - - - - -
26/01:51am 12.9 WNW 10 14 1028.0 - 0.0 - Partly cloudy - - - - -
26/01:49am 12.9 WNW 10 14 1028.0 - 0.0 - Partly cloudy - - - - -
26/01:30am 12.7 WNW 10 12 1027.9 - 0.0 - Partly cloudy - - - - -
26/01:18am 12.8 WNW 10 13 1027.9 - 0.0 - Partly cloudy - - - - -
26/01:00am 12.4 WNW 9 11 1028.0 - 0.0 - - - - - - -
26/12:30am 12.7 WNW 11 13 1028.3 - 0.0 - Partly cloudy - - - - -
26/12:00am 12.6 NW 10 13 1028.3 - 0.0 - Mostly clear - - - - -
 
Date/Time
EST
Temp

°C
Wind Pressure Rain
since 9am
mm
Weather Cloud Vis
km
Sea
Height
m
Swell
Dir
 
Speed
knots
Gust
knots
hPa Trend Height
m
Period
s
Dir
25/11:30pm 12.6 NW 10 13 1028.4 - 0.0 - Partly cloudy - - - - -
25/11:00pm 12.5 WNW 10 11 1028.4 - 0.0 - - - - - - -
25/10:30pm 12.5 WNW 10 12 1028.7 - 0.0 - - - - - - -
25/10:00pm 12.7 WNW 10 13 1028.7 - 0.0 - - - - - - -
25/09:30pm 12.8 WNW 11 14 1028.9 - 0.0 - Partly cloudy - - - - -
25/09:00pm 12.6 NW 10 13 1028.7 - 0.0 - - - - - - -
25/08:30pm 12.9 WNW 10 13 1028.7 - 0.0 - - - - - - -
25/08:00pm 13.1 NW 9 12 1028.7 - 0.0 - Partly cloudy - - - - -
25/07:30pm 12.5 NW 8 10 1028.5 - 0.0 - Partly cloudy - - - - -
25/07:00pm 12.6 NW 9 11 1028.3 - 0.0 - Partly cloudy - - - - -
25/06:30pm 12.5 NW 9 11 1028.3 - 0.0 - - - - - - -
25/06:00pm 12.5 NW 9 12 1028.2 - 0.0 - Partly cloudy - - - - -
25/05:30pm 12.4 NW 8 10 1027.9 - 0.0 - Partly cloudy - - - - -
25/05:00pm 12.5 NW 7 8 1027.7 - 0.0 - - - - - - -
25/04:30pm 13.2 WNW 7 8 1027.6 - 0.0 - - - - - - -
25/04:12pm 13.4 NW 7 8 1027.7 - 0.0 - Partly cloudy - - - - -
25/04:00pm 13.5 NW 7 8 1027.6 - 0.0 - Partly cloudy - - - - -
25/03:46pm 14.2 WNW 7 8 1027.6 - 0.0 - Partly cloudy - - - - -
25/03:30pm 13.7 WNW 7 8 1027.6 - 0.0 - - - - - - -
25/03:00pm 13.8 NW 9 11 1027.6 - 0.0 - Mostly clear - - - - -
25/02:30pm 14.4 NW 9 11 1027.7 - 0.0 - - - - - - -
25/02:00pm 14.5 NW 8 11 1027.9 - 0.0 - - - - - - -
25/01:30pm 14.6 WNW 8 11 1028.0 - 0.0 - - - - - - -
25/01:00pm 14.3 NW 10 12 1028.3 - 0.0 - Partly cloudy - - - - -
25/12:30pm 14.6 NW 10 13 1028.6 - 0.0 - Partly cloudy - - - - -
25/12:00pm 14.8 NW 10 13 1028.8 - 0.0 - Mostly clear - - - - -
25/11:30am 14.9 WNW 10 14 1029.2 - 0.0 - Partly cloudy - - - - -
25/11:00am 14.9 NW 10 13 1029.5 - 0.0 - Partly cloudy - - - - -
25/10:30am 13.9 NW 9 11 1029.5 - 0.0 - Partly cloudy - - - - -

Other Formats:

Comma delimited format used in spreadsheet applications
http://www.bom.gov.au/fwo/IDT60701/IDT60701.95954.axf

JavaScript Object Notation format (JSON) in row-major order
http://www.bom.gov.au/fwo/IDT60701/IDT60701.95954.json